sensor_id;sensor_type;location;lat;lon;timestamp;P1;durP1;ratioP1;P2;durP2;ratioP2
13477;SDS011;12598;62.382;17.344;2022-12-29T00:00:07;1.95;;;1.63;;
13477;SDS011;12598;62.382;17.344;2022-12-29T00:01:14;1.80;;;1.35;;
13477;SDS011;12598;62.382;17.344;2022-12-29T00:02:16;2.40;;;1.70;;
13477;SDS011;12598;62.382;17.344;2022-12-29T00:03:18;1.75;;;1.60;;
13477;SDS011;12598;62.382;17.344;2022-12-29T00:04:20;1.92;;;1.60;;
13477;SDS011;12598;62.382;17.344;2022-12-29T00:05:23;1.83;;;1.60;;
13477;SDS011;12598;62.382;17.344;2022-12-29T00:06:25;2.33;;;1.80;;
13477;SDS011;12598;62.382;17.344;2022-12-29T00:07:27;1.42;;;1.33;;
13477;SDS011;12598;62.382;17.344;2022-12-29T00:08:29;1.60;;;1.50;;
13477;SDS011;12598;62.382;17.344;2022-12-29T00:09:43;2.55;;;1.80;;
13477;SDS011;12598;62.382;17.344;2022-12-29T00:10:45;2.38;;;1.73;;
13477;SDS011;12598;62.382;17.344;2022-12-29T00:11:47;2.17;;;1.70;;
13477;SDS011;12598;62.382;17.344;2022-12-29T00:12:48;2.00;;;1.75;;
13477;SDS011;12598;62.382;17.344;2022-12-29T00:14:09;2.03;;;1.77;;
13477;SDS011;12598;62.382;17.344;2022-12-29T00:15:30;2.08;;;1.75;;
13477;SDS011;12598;62.382;17.344;2022-12-29T00:16:42;2.28;;;1.80;;
13477;SDS011;12598;62.382;17.344;2022-12-29T00:17:45;3.03;;;1.80;;
13477;SDS011;12598;62.382;17.344;2022-12-29T00:18:47;2.08;;;1.88;;
13477;SDS011;12598;62.382;17.344;2022-12-29T00:19:48;2.35;;;1.95;;
13477;SDS011;12598;62.382;17.344;2022-12-29T00:21:19;1.77;;;1.55;;
13477;SDS011;12598;62.382;17.344;2022-12-29T00:22:40;2.08;;;1.67;;
13477;SDS011;12598;62.382;17.344;2022-12-29T00:24:01;2.05;;;1.60;;
13477;SDS011;12598;62.382;17.344;2022-12-29T00:25:28;2.30;;;2.05;;
13477;SDS011;12598;62.382;17.344;2022-12-29T00:26:50;2.20;;;1.92;;
13477;SDS011;12598;62.382;17.344;2022-12-29T00:28:15;2.53;;;2.13;;
13477;SDS011;12598;62.382;17.344;2022-12-29T00:29:36;2.50;;;1.77;;
13477;SDS011;12598;62.382;17.344;2022-12-29T00:31:00;1.85;;;1.67;;
13477;SDS011;12598;62.382;17.344;2022-12-29T00:32:20;2.10;;;1.80;;
13477;SDS011;12598;62.382;17.344;2022-12-29T00:33:41;3.42;;;2.00;;
13477;SDS011;12598;62.382;17.344;2022-12-29T00:35:01;2.55;;;1.92;;
13477;SDS011;12598;62.382;17.344;2022-12-29T00:37:22;1.88;;;1.65;;
13477;SDS011;12598;62.382;17.344;2022-12-29T00:39:01;2.35;;;1.88;;
13477;SDS011;12598;62.382;17.344;2022-12-29T00:40:27;3.33;;;1.77;;
13477;SDS011;12598;62.382;17.344;2022-12-29T00:41:48;2.47;;;1.70;;
13477;SDS011;12598;62.382;17.344;2022-12-29T00:43:08;3.00;;;1.85;;
13477;SDS011;12598;62.382;17.344;2022-12-29T00:44:28;2.20;;;1.88;;
13477;SDS011;12598;62.382;17.344;2022-12-29T00:45:30;2.05;;;1.45;;
13477;SDS011;12598;62.382;17.344;2022-12-29T00:46:33;2.08;;;1.65;;
13477;SDS011;12598;62.382;17.344;2022-12-29T00:47:35;2.60;;;1.60;;
13477;SDS011;12598;62.382;17.344;2022-12-29T00:48:37;2.90;;;1.80;;
13477;SDS011;12598;62.382;17.344;2022-12-29T00:49:57;2.45;;;1.70;;
13477;SDS011;12598;62.382;17.344;2022-12-29T00:51:01;3.05;;;1.90;;
13477;SDS011;12598;62.382;17.344;2022-12-29T00:52:07;4.57;;;1.90;;
13477;SDS011;12598;62.382;17.344;2022-12-29T00:53:11;2.00;;;1.65;;
13477;SDS011;12598;62.382;17.344;2022-12-29T00:54:14;2.05;;;1.77;;
13477;SDS011;12598;62.382;17.344;2022-12-29T00:55:18;1.70;;;1.60;;
13477;SDS011;12598;62.382;17.344;2022-12-29T00:56:20;2.17;;;1.58;;
13477;SDS011;12598;62.382;17.344;2022-12-29T00:57:22;2.00;;;1.67;;
13477;SDS011;12598;62.382;17.344;2022-12-29T00:58:26;2.17;;;1.70;;
13477;SDS011;12598;62.382;17.344;2022-12-29T00:59:29;1.83;;;1.25;;
13477;SDS011;12598;62.382;17.344;2022-12-29T01:00:31;2.05;;;1.30;;
13477;SDS011;12598;62.382;17.344;2022-12-29T01:01:33;1.70;;;1.30;;
13477;SDS011;12598;62.382;17.344;2022-12-29T01:02:37;1.92;;;1.70;;
13477;SDS011;12598;62.382;17.344;2022-12-29T01:03:38;2.53;;;1.80;;
13477;SDS011;12598;62.382;17.344;2022-12-29T01:04:40;2.72;;;1.88;;
13477;SDS011;12598;62.382;17.344;2022-12-29T01:05:42;2.80;;;1.52;;
13477;SDS011;12598;62.382;17.344;2022-12-29T01:06:46;2.22;;;1.80;;
13477;SDS011;12598;62.382;17.344;2022-12-29T01:07:49;2.47;;;1.52;;
13477;SDS011;12598;62.382;17.344;2022-12-29T01:08:51;1.75;;;1.55;;
13477;SDS011;12598;62.382;17.344;2022-12-29T01:10:12;3.13;;;1.77;;
13477;SDS011;12598;62.382;17.344;2022-12-29T01:11:16;2.40;;;1.70;;
13477;SDS011;12598;62.382;17.344;2022-12-29T01:12:18;2.15;;;1.70;;
13477;SDS011;12598;62.382;17.344;2022-12-29T01:13:41;1.80;;;1.70;;
13477;SDS011;12598;62.382;17.344;2022-12-29T01:14:45;2.25;;;1.90;;
13477;SDS011;12598;62.382;17.344;2022-12-29T01:15:50;3.72;;;1.95;;
13477;SDS011;12598;62.382;17.344;2022-12-29T01:16:53;1.80;;;1.52;;
13477;SDS011;12598;62.382;17.344;2022-12-29T01:17:55;1.80;;;1.40;;
13477;SDS011;12598;62.382;17.344;2022-12-29T01:18:58;2.15;;;1.90;;
13477;SDS011;12598;62.382;17.344;2022-12-29T01:20:01;2.53;;;2.15;;
13477;SDS011;12598;62.382;17.344;2022-12-29T01:21:05;2.22;;;1.85;;
13477;SDS011;12598;62.382;17.344;2022-12-29T01:22:07;2.80;;;1.85;;
13477;SDS011;12598;62.382;17.344;2022-12-29T01:23:09;2.72;;;1.85;;
13477;SDS011;12598;62.382;17.344;2022-12-29T01:24:11;2.65;;;1.90;;
13477;SDS011;12598;62.382;17.344;2022-12-29T01:25:13;1.90;;;1.70;;
13477;SDS011;12598;62.382;17.344;2022-12-29T01:26:15;3.22;;;1.77;;
13477;SDS011;12598;62.382;17.344;2022-12-29T01:27:18;3.17;;;1.90;;
13477;SDS011;12598;62.382;17.344;2022-12-29T01:28:20;2.83;;;1.65;;
13477;SDS011;12598;62.382;17.344;2022-12-29T01:29:26;2.20;;;1.70;;
13477;SDS011;12598;62.382;17.344;2022-12-29T01:30:28;2.22;;;1.90;;
13477;SDS011;12598;62.382;17.344;2022-12-29T01:31:30;3.38;;;1.88;;
13477;SDS011;12598;62.382;17.344;2022-12-29T01:32:32;1.90;;;1.70;;
13477;SDS011;12598;62.382;17.344;2022-12-29T01:33:34;2.45;;;1.77;;
13477;SDS011;12598;62.382;17.344;2022-12-29T01:34:36;1.38;;;1.27;;
13477;SDS011;12598;62.382;17.344;2022-12-29T01:35:39;2.10;;;1.65;;
13477;SDS011;12598;62.382;17.344;2022-12-29T01:36:41;2.30;;;1.58;;
13477;SDS011;12598;62.382;17.344;2022-12-29T01:37:43;2.65;;;1.63;;
13477;SDS011;12598;62.382;17.344;2022-12-29T01:38:45;2.63;;;1.80;;
13477;SDS011;12598;62.382;17.344;2022-12-29T01:39:47;2.00;;;1.52;;
13477;SDS011;12598;62.382;17.344;2022-12-29T01:40:49;3.05;;;2.10;;
13477;SDS011;12598;62.382;17.344;2022-12-29T01:41:50;2.50;;;2.00;;
13477;SDS011;12598;62.382;17.344;2022-12-29T01:42:52;2.83;;;1.95;;
13477;SDS011;12598;62.382;17.344;2022-12-29T01:43:55;1.85;;;1.50;;
13477;SDS011;12598;62.382;17.344;2022-12-29T01:45:14;2.92;;;1.88;;
13477;SDS011;12598;62.382;17.344;2022-12-29T01:47:44;2.80;;;1.88;;
13477;SDS011;12598;62.382;17.344;2022-12-29T01:48:54;2.15;;;1.77;;
13477;SDS011;12598;62.382;17.344;2022-12-29T01:50:37;1.65;;;1.33;;
13477;SDS011;12598;62.382;17.344;2022-12-29T01:51:43;2.78;;;1.77;;
13477;SDS011;12598;62.382;17.344;2022-12-29T01:52:53;2.05;;;1.50;;
13477;SDS011;12598;62.382;17.344;2022-12-29T01:53:59;2.03;;;1.55;;
13477;SDS011;12598;62.382;17.344;2022-12-29T01:55:04;1.73;;;1.58;;
13477;SDS011;12598;62.382;17.344;2022-12-29T01:56:07;1.65;;;1.55;;
13477;SDS011;12598;62.382;17.344;2022-12-29T01:57:19;2.08;;;1.58;;
13477;SDS011;12598;62.382;17.344;2022-12-29T01:58:27;1.98;;;1.30;;
13477;SDS011;12598;62.382;17.344;2022-12-29T01:59:34;1.85;;;1.48;;
13477;SDS011;12598;62.382;17.344;2022-12-29T02:00:40;1.85;;;1.10;;
13477;SDS011;12598;62.382;17.344;2022-12-29T02:01:43;1.92;;;1.35;;
13477;SDS011;12598;62.382;17.344;2022-12-29T02:02:46;2.45;;;1.20;;
13477;SDS011;12598;62.382;17.344;2022-12-29T02:03:52;1.65;;;1.20;;
13477;SDS011;12598;62.382;17.344;2022-12-29T02:04:53;2.20;;;1.50;;
13477;SDS011;12598;62.382;17.344;2022-12-29T02:06:12;1.73;;;1.20;;
13477;SDS011;12598;62.382;17.344;2022-12-29T02:07:21;1.98;;;1.23;;
13477;SDS011;12598;62.382;17.344;2022-12-29T02:08:26;1.50;;;1.15;;
13477;SDS011;12598;62.382;17.344;2022-12-29T02:09:30;1.45;;;0.88;;
13477;SDS011;12598;62.382;17.344;2022-12-29T02:10:32;1.80;;;1.30;;
13477;SDS011;12598;62.382;17.344;2022-12-29T02:11:37;1.98;;;1.23;;
13477;SDS011;12598;62.382;17.344;2022-12-29T02:12:40;1.10;;;0.77;;
13477;SDS011;12598;62.382;17.344;2022-12-29T02:13:42;1.58;;;1.02;;
13477;SDS011;12598;62.382;17.344;2022-12-29T02:14:44;2.35;;;1.25;;
13477;SDS011;12598;62.382;17.344;2022-12-29T02:15:50;1.58;;;1.30;;
13477;SDS011;12598;62.382;17.344;2022-12-29T02:22:30;1.92;;;1.30;;
13477;SDS011;12598;62.382;17.344;2022-12-29T02:25:09;2.60;;;1.55;;
13477;SDS011;12598;62.382;17.344;2022-12-29T02:28:31;2.17;;;1.55;;
13477;SDS011;12598;62.382;17.344;2022-12-29T02:31:31;3.45;;;2.00;;
13477;SDS011;12598;62.382;17.344;2022-12-29T02:34:30;3.70;;;2.13;;
13477;SDS011;12598;62.382;17.344;2022-12-29T02:35:42;2.53;;;1.83;;
13477;SDS011;12598;62.382;17.344;2022-12-29T02:38:03;3.08;;;2.08;;
13477;SDS011;12598;62.382;17.344;2022-12-29T02:40:47;2.45;;;1.88;;
13477;SDS011;12598;62.382;17.344;2022-12-29T02:43:26;3.85;;;2.40;;
13477;SDS011;12598;62.382;17.344;2022-12-29T02:45:51;4.60;;;2.20;;
13477;SDS011;12598;62.382;17.344;2022-12-29T02:48:38;4.97;;;2.17;;
13477;SDS011;12598;62.382;17.344;2022-12-29T02:49:48;4.03;;;2.03;;
13477;SDS011;12598;62.382;17.344;2022-12-29T02:51:09;4.38;;;2.30;;
13477;SDS011;12598;62.382;17.344;2022-12-29T02:52:18;3.40;;;2.17;;
13477;SDS011;12598;62.382;17.344;2022-12-29T02:53:24;5.57;;;2.42;;
13477;SDS011;12598;62.382;17.344;2022-12-29T02:54:48;3.17;;;2.15;;
13477;SDS011;12598;62.382;17.344;2022-12-29T02:55:51;4.18;;;2.45;;
13477;SDS011;12598;62.382;17.344;2022-12-29T02:56:53;3.40;;;2.65;;
13477;SDS011;12598;62.382;17.344;2022-12-29T02:59:20;3.47;;;2.20;;
13477;SDS011;12598;62.382;17.344;2022-12-29T03:00:23;3.65;;;2.63;;
13477;SDS011;12598;62.382;17.344;2022-12-29T03:04:46;5.05;;;2.70;;
13477;SDS011;12598;62.382;17.344;2022-12-29T03:05:59;4.85;;;2.70;;
13477;SDS011;12598;62.382;17.344;2022-12-29T03:10:30;4.25;;;3.00;;
13477;SDS011;12598;62.382;17.344;2022-12-29T03:11:41;4.55;;;2.65;;
13477;SDS011;12598;62.382;17.344;2022-12-29T03:13:21;5.15;;;2.75;;
13477;SDS011;12598;62.382;17.344;2022-12-29T03:16:33;3.72;;;2.45;;
13477;SDS011;12598;62.382;17.344;2022-12-29T03:19:21;4.82;;;2.78;;
13477;SDS011;12598;62.382;17.344;2022-12-29T03:20:29;5.78;;;3.20;;
13477;SDS011;12598;62.382;17.344;2022-12-29T03:21:48;4.35;;;3.00;;
13477;SDS011;12598;62.382;17.344;2022-12-29T03:23:17;4.60;;;2.88;;
13477;SDS011;12598;62.382;17.344;2022-12-29T03:24:22;4.90;;;2.65;;
13477;SDS011;12598;62.382;17.344;2022-12-29T03:25:31;4.78;;;3.10;;
13477;SDS011;12598;62.382;17.344;2022-12-29T03:26:37;5.07;;;3.50;;
13477;SDS011;12598;62.382;17.344;2022-12-29T03:27:42;4.90;;;3.22;;
13477;SDS011;12598;62.382;17.344;2022-12-29T03:28:49;4.32;;;2.97;;
13477;SDS011;12598;62.382;17.344;2022-12-29T03:29:59;4.50;;;3.13;;
13477;SDS011;12598;62.382;17.344;2022-12-29T03:31:04;5.18;;;3.03;;
13477;SDS011;12598;62.382;17.344;2022-12-29T03:32:10;3.85;;;2.88;;
13477;SDS011;12598;62.382;17.344;2022-12-29T03:33:15;4.70;;;2.75;;
13477;SDS011;12598;62.382;17.344;2022-12-29T03:34:23;4.07;;;2.70;;
13477;SDS011;12598;62.382;17.344;2022-12-29T03:35:27;5.55;;;3.35;;
13477;SDS011;12598;62.382;17.344;2022-12-29T03:36:33;3.95;;;3.00;;
13477;SDS011;12598;62.382;17.344;2022-12-29T03:37:49;5.47;;;3.33;;
13477;SDS011;12598;62.382;17.344;2022-12-29T03:39:10;4.18;;;3.13;;
13477;SDS011;12598;62.382;17.344;2022-12-29T03:40:13;6.72;;;3.50;;
13477;SDS011;12598;62.382;17.344;2022-12-29T03:41:18;5.13;;;3.30;;
13477;SDS011;12598;62.382;17.344;2022-12-29T03:42:25;4.93;;;3.33;;
13477;SDS011;12598;62.382;17.344;2022-12-29T03:43:32;3.90;;;2.83;;
13477;SDS011;12598;62.382;17.344;2022-12-29T03:44:36;3.88;;;3.00;;
13477;SDS011;12598;62.382;17.344;2022-12-29T03:45:41;4.18;;;3.40;;
13477;SDS011;12598;62.382;17.344;2022-12-29T03:46:44;4.97;;;3.05;;
13477;SDS011;12598;62.382;17.344;2022-12-29T03:47:46;3.95;;;3.17;;
13477;SDS011;12598;62.382;17.344;2022-12-29T03:48:50;3.90;;;2.95;;
13477;SDS011;12598;62.382;17.344;2022-12-29T03:49:52;5.68;;;3.70;;
13477;SDS011;12598;62.382;17.344;2022-12-29T03:50:55;4.53;;;3.20;;
13477;SDS011;12598;62.382;17.344;2022-12-29T03:51:57;3.85;;;2.83;;
13477;SDS011;12598;62.382;17.344;2022-12-29T03:53:00;5.93;;;3.40;;
13477;SDS011;12598;62.382;17.344;2022-12-29T03:54:02;5.65;;;3.20;;
13477;SDS011;12598;62.382;17.344;2022-12-29T03:55:04;6.55;;;3.30;;
13477;SDS011;12598;62.382;17.344;2022-12-29T03:56:06;5.85;;;3.47;;
13477;SDS011;12598;62.382;17.344;2022-12-29T03:57:09;4.90;;;3.40;;
13477;SDS011;12598;62.382;17.344;2022-12-29T03:58:31;5.47;;;3.55;;
13477;SDS011;12598;62.382;17.344;2022-12-29T03:59:43;4.82;;;3.00;;
13477;SDS011;12598;62.382;17.344;2022-12-29T04:00:46;4.90;;;3.15;;
13477;SDS011;12598;62.382;17.344;2022-12-29T04:01:48;4.22;;;3.22;;
13477;SDS011;12598;62.382;17.344;2022-12-29T04:02:50;5.25;;;3.28;;
13477;SDS011;12598;62.382;17.344;2022-12-29T04:03:54;5.13;;;3.58;;
13477;SDS011;12598;62.382;17.344;2022-12-29T04:04:57;7.05;;;3.92;;
13477;SDS011;12598;62.382;17.344;2022-12-29T04:05:58;4.53;;;3.17;;
13477;SDS011;12598;62.382;17.344;2022-12-29T04:07:03;4.22;;;3.22;;
13477;SDS011;12598;62.382;17.344;2022-12-29T04:08:05;6.28;;;3.42;;
13477;SDS011;12598;62.382;17.344;2022-12-29T04:09:07;5.70;;;3.15;;
13477;SDS011;12598;62.382;17.344;2022-12-29T04:10:15;4.55;;;3.25;;
13477;SDS011;12598;62.382;17.344;2022-12-29T04:11:19;5.60;;;3.33;;
13477;SDS011;12598;62.382;17.344;2022-12-29T04:12:21;5.38;;;3.70;;
13477;SDS011;12598;62.382;17.344;2022-12-29T04:13:23;4.55;;;3.15;;
13477;SDS011;12598;62.382;17.344;2022-12-29T04:14:26;4.13;;;2.97;;
13477;SDS011;12598;62.382;17.344;2022-12-29T04:15:28;5.63;;;3.10;;
13477;SDS011;12598;62.382;17.344;2022-12-29T04:16:31;5.13;;;3.08;;
13477;SDS011;12598;62.382;17.344;2022-12-29T04:17:32;6.68;;;3.78;;
13477;SDS011;12598;62.382;17.344;2022-12-29T04:18:35;6.22;;;3.40;;
13477;SDS011;12598;62.382;17.344;2022-12-29T04:19:37;4.90;;;3.08;;
13477;SDS011;12598;62.382;17.344;2022-12-29T04:20:39;7.35;;;3.83;;
13477;SDS011;12598;62.382;17.344;2022-12-29T04:22:00;4.88;;;2.88;;
13477;SDS011;12598;62.382;17.344;2022-12-29T04:23:02;3.33;;;2.50;;
13477;SDS011;12598;62.382;17.344;2022-12-29T04:24:06;5.88;;;3.70;;
13477;SDS011;12598;62.382;17.344;2022-12-29T04:25:13;4.72;;;3.33;;
13477;SDS011;12598;62.382;17.344;2022-12-29T04:26:16;6.15;;;4.05;;
13477;SDS011;12598;62.382;17.344;2022-12-29T04:27:28;5.68;;;3.40;;
13477;SDS011;12598;62.382;17.344;2022-12-29T04:28:56;4.78;;;2.95;;
13477;SDS011;12598;62.382;17.344;2022-12-29T04:30:33;6.68;;;3.83;;
13477;SDS011;12598;62.382;17.344;2022-12-29T04:31:43;5.25;;;3.13;;
13477;SDS011;12598;62.382;17.344;2022-12-29T04:32:45;5.22;;;3.17;;
13477;SDS011;12598;62.382;17.344;2022-12-29T04:33:47;5.15;;;3.03;;
13477;SDS011;12598;62.382;17.344;2022-12-29T04:34:49;6.07;;;3.33;;
13477;SDS011;12598;62.382;17.344;2022-12-29T04:35:52;4.38;;;3.15;;
13477;SDS011;12598;62.382;17.344;2022-12-29T04:36:57;6.47;;;3.13;;
13477;SDS011;12598;62.382;17.344;2022-12-29T04:37:59;4.90;;;3.10;;
13477;SDS011;12598;62.382;17.344;2022-12-29T04:39:02;5.25;;;3.92;;
13477;SDS011;12598;62.382;17.344;2022-12-29T04:40:07;5.78;;;3.33;;
13477;SDS011;12598;62.382;17.344;2022-12-29T04:41:10;6.20;;;3.35;;
13477;SDS011;12598;62.382;17.344;2022-12-29T04:42:13;5.70;;;3.28;;
13477;SDS011;12598;62.382;17.344;2022-12-29T04:43:17;5.90;;;3.10;;
13477;SDS011;12598;62.382;17.344;2022-12-29T04:44:46;5.90;;;3.15;;
13477;SDS011;12598;62.382;17.344;2022-12-29T04:45:56;4.22;;;2.85;;
13477;SDS011;12598;62.382;17.344;2022-12-29T04:47:07;5.88;;;3.15;;
13477;SDS011;12598;62.382;17.344;2022-12-29T04:48:27;5.63;;;3.45;;
13477;SDS011;12598;62.382;17.344;2022-12-29T04:49:42;5.60;;;3.03;;
13477;SDS011;12598;62.382;17.344;2022-12-29T04:51:02;5.78;;;3.40;;
13477;SDS011;12598;62.382;17.344;2022-12-29T04:52:10;4.63;;;3.03;;
13477;SDS011;12598;62.382;17.344;2022-12-29T04:53:13;4.20;;;2.70;;
13477;SDS011;12598;62.382;17.344;2022-12-29T04:54:16;4.95;;;3.33;;
13477;SDS011;12598;62.382;17.344;2022-12-29T04:55:23;5.65;;;2.80;;
13477;SDS011;12598;62.382;17.344;2022-12-29T04:56:25;4.55;;;2.47;;
13477;SDS011;12598;62.382;17.344;2022-12-29T04:57:27;5.00;;;3.25;;
13477;SDS011;12598;62.382;17.344;2022-12-29T04:58:32;4.72;;;3.00;;
13477;SDS011;12598;62.382;17.344;2022-12-29T04:59:34;4.68;;;3.05;;
13477;SDS011;12598;62.382;17.344;2022-12-29T05:00:36;4.53;;;3.03;;
13477;SDS011;12598;62.382;17.344;2022-12-29T05:01:38;5.22;;;3.08;;
13477;SDS011;12598;62.382;17.344;2022-12-29T05:02:40;3.42;;;3.08;;
13477;SDS011;12598;62.382;17.344;2022-12-29T05:03:43;4.30;;;2.65;;
13477;SDS011;12598;62.382;17.344;2022-12-29T05:04:45;4.53;;;2.70;;
13477;SDS011;12598;62.382;17.344;2022-12-29T05:05:47;4.53;;;2.70;;
13477;SDS011;12598;62.382;17.344;2022-12-29T05:06:49;3.78;;;2.78;;
13477;SDS011;12598;62.382;17.344;2022-12-29T05:07:51;3.55;;;2.30;;
13477;SDS011;12598;62.382;17.344;2022-12-29T05:08:53;5.05;;;2.90;;
13477;SDS011;12598;62.382;17.344;2022-12-29T05:09:55;3.47;;;2.20;;
13477;SDS011;12598;62.382;17.344;2022-12-29T05:10:57;4.45;;;2.78;;
13477;SDS011;12598;62.382;17.344;2022-12-29T05:12:00;4.32;;;2.67;;
13477;SDS011;12598;62.382;17.344;2022-12-29T05:13:03;4.07;;;2.58;;
13477;SDS011;12598;62.382;17.344;2022-12-29T05:14:05;3.83;;;2.83;;
13477;SDS011;12598;62.382;17.344;2022-12-29T05:15:10;4.25;;;2.38;;
13477;SDS011;12598;62.382;17.344;2022-12-29T05:16:13;4.70;;;2.85;;
13477;SDS011;12598;62.382;17.344;2022-12-29T05:17:15;5.13;;;2.65;;
13477;SDS011;12598;62.382;17.344;2022-12-29T05:18:17;4.13;;;2.58;;
13477;SDS011;12598;62.382;17.344;2022-12-29T05:19:20;3.65;;;2.60;;
13477;SDS011;12598;62.382;17.344;2022-12-29T05:20:22;4.57;;;2.65;;
13477;SDS011;12598;62.382;17.344;2022-12-29T05:21:24;3.60;;;2.55;;
13477;SDS011;12598;62.382;17.344;2022-12-29T05:22:26;4.75;;;2.60;;
13477;SDS011;12598;62.382;17.344;2022-12-29T05:23:30;5.25;;;3.22;;
13477;SDS011;12598;62.382;17.344;2022-12-29T05:24:38;4.28;;;2.63;;
13477;SDS011;12598;62.382;17.344;2022-12-29T05:25:40;4.28;;;3.28;;
13477;SDS011;12598;62.382;17.344;2022-12-29T05:26:55;6.20;;;3.00;;
13477;SDS011;12598;62.382;17.344;2022-12-29T05:28:17;4.70;;;2.67;;
13477;SDS011;12598;62.382;17.344;2022-12-29T05:29:23;5.00;;;3.33;;
13477;SDS011;12598;62.382;17.344;2022-12-29T05:30:26;4.80;;;3.15;;
13477;SDS011;12598;62.382;17.344;2022-12-29T05:31:28;6.38;;;3.33;;
13477;SDS011;12598;62.382;17.344;2022-12-29T05:32:31;5.25;;;3.58;;
13477;SDS011;12598;62.382;17.344;2022-12-29T05:33:33;5.93;;;3.58;;
13477;SDS011;12598;62.382;17.344;2022-12-29T05:34:37;6.43;;;3.60;;
13477;SDS011;12598;62.382;17.344;2022-12-29T05:35:39;4.80;;;3.03;;
13477;SDS011;12598;62.382;17.344;2022-12-29T05:36:41;6.95;;;4.05;;
13477;SDS011;12598;62.382;17.344;2022-12-29T05:37:44;6.57;;;4.03;;
13477;SDS011;12598;62.382;17.344;2022-12-29T05:38:46;6.20;;;3.97;;
13477;SDS011;12598;62.382;17.344;2022-12-29T05:39:48;6.03;;;4.28;;
13477;SDS011;12598;62.382;17.344;2022-12-29T05:40:50;6.65;;;3.55;;
13477;SDS011;12598;62.382;17.344;2022-12-29T05:42:24;5.75;;;4.10;;
13477;SDS011;12598;62.382;17.344;2022-12-29T05:43:46;6.18;;;3.85;;
13477;SDS011;12598;62.382;17.344;2022-12-29T05:45:06;8.25;;;4.70;;
13477;SDS011;12598;62.382;17.344;2022-12-29T05:46:21;7.45;;;4.00;;
13477;SDS011;12598;62.382;17.344;2022-12-29T05:47:58;8.88;;;4.75;;
13477;SDS011;12598;62.382;17.344;2022-12-29T05:49:09;8.77;;;5.25;;
13477;SDS011;12598;62.382;17.344;2022-12-29T05:50:26;7.65;;;4.80;;
13477;SDS011;12598;62.382;17.344;2022-12-29T05:51:42;6.93;;;4.47;;
13477;SDS011;12598;62.382;17.344;2022-12-29T05:52:44;6.90;;;4.30;;
13477;SDS011;12598;62.382;17.344;2022-12-29T05:53:46;8.02;;;5.07;;
13477;SDS011;12598;62.382;17.344;2022-12-29T05:54:49;7.20;;;4.85;;
13477;SDS011;12598;62.382;17.344;2022-12-29T05:55:54;7.63;;;5.13;;
13477;SDS011;12598;62.382;17.344;2022-12-29T05:56:56;7.13;;;4.63;;
13477;SDS011;12598;62.382;17.344;2022-12-29T05:57:58;6.07;;;4.63;;
13477;SDS011;12598;62.382;17.344;2022-12-29T05:59:02;9.88;;;5.28;;
13477;SDS011;12598;62.382;17.344;2022-12-29T06:00:04;6.75;;;4.75;;
13477;SDS011;12598;62.382;17.344;2022-12-29T06:01:14;7.30;;;4.93;;
13477;SDS011;12598;62.382;17.344;2022-12-29T06:02:18;8.10;;;5.20;;
13477;SDS011;12598;62.382;17.344;2022-12-29T06:03:21;7.97;;;5.20;;
13477;SDS011;12598;62.382;17.344;2022-12-29T06:04:25;8.07;;;5.03;;
13477;SDS011;12598;62.382;17.344;2022-12-29T06:05:27;7.93;;;5.53;;
13477;SDS011;12598;62.382;17.344;2022-12-29T06:06:29;7.28;;;5.18;;
13477;SDS011;12598;62.382;17.344;2022-12-29T06:07:31;8.00;;;4.90;;
13477;SDS011;12598;62.382;17.344;2022-12-29T06:08:33;8.07;;;5.10;;
13477;SDS011;12598;62.382;17.344;2022-12-29T06:09:35;7.53;;;5.40;;
13477;SDS011;12598;62.382;17.344;2022-12-29T06:10:38;6.47;;;5.25;;
13477;SDS011;12598;62.382;17.344;2022-12-29T06:11:42;7.43;;;5.30;;
13477;SDS011;12598;62.382;17.344;2022-12-29T06:12:44;6.63;;;4.57;;
13477;SDS011;12598;62.382;17.344;2022-12-29T06:13:46;8.95;;;5.65;;
13477;SDS011;12598;62.382;17.344;2022-12-29T06:14:50;7.30;;;5.13;;
13477;SDS011;12598;62.382;17.344;2022-12-29T06:15:52;8.65;;;5.43;;
13477;SDS011;12598;62.382;17.344;2022-12-29T06:16:54;10.02;;;5.75;;
13477;SDS011;12598;62.382;17.344;2022-12-29T06:17:56;7.32;;;5.60;;
13477;SDS011;12598;62.382;17.344;2022-12-29T06:18:58;9.20;;;5.60;;
13477;SDS011;12598;62.382;17.344;2022-12-29T06:20:00;8.60;;;5.60;;
13477;SDS011;12598;62.382;17.344;2022-12-29T06:21:03;7.45;;;5.32;;
13477;SDS011;12598;62.382;17.344;2022-12-29T06:22:06;8.07;;;5.15;;
13477;SDS011;12598;62.382;17.344;2022-12-29T06:23:09;8.57;;;5.30;;
13477;SDS011;12598;62.382;17.344;2022-12-29T06:24:13;7.40;;;5.15;;
13477;SDS011;12598;62.382;17.344;2022-12-29T06:25:15;7.80;;;5.00;;
13477;SDS011;12598;62.382;17.344;2022-12-29T06:26:18;6.82;;;4.68;;
13477;SDS011;12598;62.382;17.344;2022-12-29T06:27:22;6.70;;;5.32;;
13477;SDS011;12598;62.382;17.344;2022-12-29T06:28:26;6.18;;;4.68;;
13477;SDS011;12598;62.382;17.344;2022-12-29T06:29:27;6.13;;;4.25;;
13477;SDS011;12598;62.382;17.344;2022-12-29T06:30:31;7.05;;;5.22;;
13477;SDS011;12598;62.382;17.344;2022-12-29T06:31:35;7.60;;;6.00;;
13477;SDS011;12598;62.382;17.344;2022-12-29T06:32:38;5.90;;;4.53;;
13477;SDS011;12598;62.382;17.344;2022-12-29T06:33:43;8.38;;;5.43;;
13477;SDS011;12598;62.382;17.344;2022-12-29T06:34:50;6.80;;;5.03;;
13477;SDS011;12598;62.382;17.344;2022-12-29T06:35:52;7.07;;;5.07;;
13477;SDS011;12598;62.382;17.344;2022-12-29T06:36:53;6.03;;;4.57;;
13477;SDS011;12598;62.382;17.344;2022-12-29T06:37:55;6.80;;;5.78;;
13477;SDS011;12598;62.382;17.344;2022-12-29T06:38:57;6.88;;;5.03;;
13477;SDS011;12598;62.382;17.344;2022-12-29T06:39:59;6.93;;;4.82;;
13477;SDS011;12598;62.382;17.344;2022-12-29T06:41:10;6.57;;;4.88;;
13477;SDS011;12598;62.382;17.344;2022-12-29T06:42:49;6.30;;;4.65;;
13477;SDS011;12598;62.382;17.344;2022-12-29T06:44:23;5.68;;;4.53;;
13477;SDS011;12598;62.382;17.344;2022-12-29T06:45:30;5.63;;;4.55;;
13477;SDS011;12598;62.382;17.344;2022-12-29T06:46:32;6.78;;;4.68;;
13477;SDS011;12598;62.382;17.344;2022-12-29T06:47:34;6.75;;;4.97;;
13477;SDS011;12598;62.382;17.344;2022-12-29T06:48:36;6.30;;;4.93;;
13477;SDS011;12598;62.382;17.344;2022-12-29T06:49:38;5.57;;;4.13;;
13477;SDS011;12598;62.382;17.344;2022-12-29T06:50:40;6.93;;;5.35;;
13477;SDS011;12598;62.382;17.344;2022-12-29T06:51:42;6.50;;;4.50;;
13477;SDS011;12598;62.382;17.344;2022-12-29T06:52:44;6.43;;;4.93;;
13477;SDS011;12598;62.382;17.344;2022-12-29T06:53:45;6.22;;;4.80;;
13477;SDS011;12598;62.382;17.344;2022-12-29T06:54:47;6.82;;;5.15;;
13477;SDS011;12598;62.382;17.344;2022-12-29T06:55:49;5.65;;;4.57;;
13477;SDS011;12598;62.382;17.344;2022-12-29T06:56:51;7.40;;;4.97;;
13477;SDS011;12598;62.382;17.344;2022-12-29T06:57:54;6.38;;;4.97;;
13477;SDS011;12598;62.382;17.344;2022-12-29T06:58:57;6.82;;;4.63;;
13477;SDS011;12598;62.382;17.344;2022-12-29T07:00:02;6.38;;;4.80;;
13477;SDS011;12598;62.382;17.344;2022-12-29T07:01:06;6.25;;;4.80;;
13477;SDS011;12598;62.382;17.344;2022-12-29T07:02:11;5.35;;;4.22;;
13477;SDS011;12598;62.382;17.344;2022-12-29T07:03:14;6.20;;;4.60;;
13477;SDS011;12598;62.382;17.344;2022-12-29T07:04:17;5.97;;;4.38;;
13477;SDS011;12598;62.382;17.344;2022-12-29T07:05:19;6.85;;;4.43;;
13477;SDS011;12598;62.382;17.344;2022-12-29T07:06:21;5.07;;;3.95;;
13477;SDS011;12598;62.382;17.344;2022-12-29T07:07:23;6.53;;;4.78;;
13477;SDS011;12598;62.382;17.344;2022-12-29T07:08:25;7.28;;;4.95;;
13477;SDS011;12598;62.382;17.344;2022-12-29T07:09:26;5.25;;;4.25;;